Time;durP1;ratioP1;P1;durP2;ratioP2;P2;SDS_P1;SDS_P2;PMS_P1;PMS_P2;Temp;Humidity;BMP_temperature;BMP_pressure;BME280_temperature;BME280_humidity;BME280_pressure;Samples;Min_cycle;Max_cycle;Signal;HPM_P1;HPM_P2
2022/01/22 00:02:51;;;;;;;14.07;9.97;;;5.30;99.90;;;;;;10497922;28;20283;-77
2022/01/22 00:07:54;;;;;;;12.83;9.60;;;5.40;99.90;;;;;;10499249;28;20212;-78
2022/01/22 00:18:22;;;;;;;15.13;10.13;;;5.50;99.90;;;;;;10495276;28;20216;-77
2022/01/22 00:23:28;;;;;;;12.60;9.20;;;5.50;99.90;;;;;;10497630;28;20197;-79
2022/01/22 00:28:30;;;;;;;10.47;9.47;;;5.50;99.90;;;;;;10511955;28;20573;-76
2022/01/22 00:33:33;;;;;;;9.97;8.97;;;5.60;99.90;;;;;;10491967;28;20570;-77
2022/01/22 00:38:36;;;;;;;10.30;8.27;;;5.60;99.90;;;;;;10492503;28;20216;-76
2022/01/22 00:43:38;;;;;;;9.60;8.63;;;5.60;99.90;;;;;;10492920;28;20196;-76
2022/01/22 00:48:40;;;;;;;8.23;7.50;;;5.60;99.90;;;;;;10495591;28;20216;-76
2022/01/22 00:53:44;;;;;;;12.90;7.83;;;5.70;99.90;;;;;;10495247;28;20284;-76
2022/01/22 00:58:47;;;;;;;11.33;7.93;;;5.70;99.90;;;;;;10494522;28;20761;-77
2022/01/22 01:03:49;;;;;;;11.53;8.10;;;5.70;99.90;;;;;;10494678;28;20192;-77
2022/01/22 01:08:52;;;;;;;8.50;7.80;;;5.70;99.90;;;;;;10509814;28;20252;-76
2022/01/22 01:13:58;;;;;;;7.90;7.20;;;5.80;99.90;;;;;;10498599;28;20288;-78
2022/01/22 01:35:05;;;;;;;7.60;6.87;;;5.90;99.90;;;;;;10480384;28;20213;-79
2022/01/22 01:40:12;;;;;;;8.43;7.60;;;5.90;99.90;;;;;;10495557;28;20209;-78
2022/01/22 01:45:16;;;;;;;9.83;7.77;;;6.00;99.90;;;;;;10496713;28;20716;-79
2022/01/22 01:50:20;;;;;;;8.27;7.50;;;6.00;99.90;;;;;;10499747;28;20216;-78
2022/01/22 01:55:35;;;;;;;8.77;8.00;;;6.10;99.90;;;;;;10499746;28;20222;-77
2022/01/22 02:00:46;;;;;;;8.73;7.87;;;6.10;99.90;;;;;;10474517;28;20204;-78
2022/01/22 02:05:48;;;;;;;8.60;7.70;;;6.10;99.90;;;;;;10496478;28;20600;-77
2022/01/22 02:10:57;;;;;;;9.57;8.50;;;6.10;99.90;;;;;;10495873;28;20213;-77
2022/01/22 02:27:12;;;;;;;9.17;8.27;;;6.20;99.90;;;;;;10498892;28;20220;-77
2022/01/22 02:32:57;;;;;;;10.27;8.63;;;6.20;99.90;;;;;;10494240;28;20299;-77
2022/01/22 02:38:10;;;;;;;10.07;8.50;;;6.20;99.90;;;;;;10491068;28;20747;-78
2022/01/22 02:43:12;;;;;;;9.50;8.60;;;6.30;99.90;;;;;;10481047;28;20210;-78
2022/01/22 02:48:14;;;;;;;9.83;8.83;;;6.30;99.90;;;;;;10497251;28;20216;-77
2022/01/22 02:53:18;;;;;;;9.80;8.57;;;6.30;99.90;;;;;;10497099;28;20200;-77
2022/01/22 02:58:21;;;;;;;10.23;9.20;;;6.30;99.90;;;;;;10493814;28;20308;-77
2022/01/22 03:03:23;;;;;;;10.37;9.47;;;6.20;99.90;;;;;;10477857;28;20204;-78
2022/01/22 03:08:28;;;;;;;11.27;10.17;;;6.30;99.90;;;;;;10501052;28;20216;-77
2022/01/22 03:19:04;;;;;;;10.03;9.03;;;6.30;99.90;;;;;;10464963;28;20212;-78
2022/01/22 03:29:38;;;;;;;10.30;9.30;;;6.30;99.90;;;;;;10503381;28;20234;-77
2022/01/22 03:34:53;;;;;;;10.90;9.67;;;6.30;99.90;;;;;;10501518;28;20663;-78
2022/01/22 03:39:57;;;;;;;10.70;9.30;;;6.40;99.90;;;;;;10484576;28;20242;-77
2022/01/22 03:44:59;;;;;;;9.73;8.93;;;6.40;99.90;;;;;;10501843;28;20274;-77
2022/01/22 03:50:02;;;;;;;10.00;9.13;;;6.40;99.90;;;;;;10502417;28;20220;-79
2022/01/22 03:55:10;;;;;;;9.27;8.47;;;6.40;99.90;;;;;;10504469;28;20596;-76
2022/01/22 04:00:30;;;;;;;12.53;9.90;;;6.30;99.90;;;;;;10502457;28;20207;-77
2022/01/22 04:05:35;;;;;;;10.20;9.30;;;6.30;99.90;;;;;;10483563;28;20775;-76
2022/01/22 04:10:38;;;;;;;11.60;10.07;;;6.40;99.90;;;;;;10501010;28;20656;-78
2022/01/22 04:15:41;;;;;;;10.37;9.33;;;6.40;99.90;;;;;;10500312;28;20225;-76
2022/01/22 04:26:14;;;;;;;11.80;10.60;;;6.40;99.90;;;;;;10499491;28;20219;-76
2022/01/22 04:31:16;;;;;;;9.67;8.73;;;6.40;99.90;;;;;;10494391;28;20227;-78
2022/01/22 04:36:18;;;;;;;8.57;7.70;;;6.40;99.90;;;;;;10498632;28;20255;-76
2022/01/22 04:41:23;;;;;;;13.40;10.30;;;6.30;99.90;;;;;;10499088;28;20196;-78
2022/01/22 04:46:37;;;;;;;11.97;10.83;;;6.30;99.90;;;;;;10498603;28;20227;-77
2022/01/22 04:57:04;;;;;;;11.83;10.60;;;6.30;99.90;;;;;;10498099;28;20221;-78
2022/01/22 05:02:06;;;;;;;12.83;9.73;;;6.30;99.90;;;;;;10498063;28;20614;-78
2022/01/22 05:07:28;;;;;;;10.13;9.10;;;6.30;99.90;;;;;;10466835;28;20730;-78
2022/01/22 05:12:40;;;;;;;12.63;9.80;;;6.30;99.90;;;;;;10497794;28;20311;-78
2022/01/22 05:17:44;;;;;;;12.00;10.53;;;6.30;99.90;;;;;;10497887;28;20223;-78
2022/01/22 05:22:59;;;;;;;11.17;10.00;;;6.40;99.90;;;;;;10500148;28;20572;-77
2022/01/22 05:28:36;;;;;;;9.93;8.93;;;6.40;99.90;;;;;;10498451;28;20695;-79
2022/01/22 05:39:24;;;;;;;11.97;10.37;;;6.40;99.90;;;;;;10496239;28;20596;-76
2022/01/22 05:44:30;;;;;;;9.97;9.07;;;6.40;99.90;;;;;;10496274;28;20204;-77
2022/01/22 05:49:36;;;;;;;13.07;10.47;;;6.40;99.90;;;;;;10480624;28;20308;-78
2022/01/22 05:55:06;;;;;;;10.93;9.83;;;6.50;99.90;;;;;;10493364;28;20291;-77
2022/01/22 06:00:10;;;;;;;12.87;10.60;;;6.50;99.90;;;;;;10497926;28;20599;-77
2022/01/22 06:05:21;;;;;;;12.90;9.70;;;6.40;99.90;;;;;;10497218;28;20219;-78
2022/01/22 06:10:28;;;;;;;12.40;10.60;;;6.50;99.90;;;;;;10495424;28;20251;-78
2022/01/22 06:15:32;;;;;;;11.23;10.13;;;6.50;99.90;;;;;;10494277;28;20696;-78
2022/01/22 06:20:56;;;;;;;10.90;9.80;;;6.50;99.90;;;;;;10501194;28;20240;-78
2022/01/22 06:26:00;;;;;;;10.53;9.53;;;6.50;99.90;;;;;;10499678;28;20216;-78
2022/01/22 06:31:05;;;;;;;12.23;10.53;;;6.50;99.90;;;;;;10483014;28;20278;-78
2022/01/22 06:36:08;;;;;;;10.60;9.33;;;6.50;99.90;;;;;;10500249;28;20220;-78
2022/01/22 06:47:09;;;;;;;10.30;9.30;;;6.50;99.90;;;;;;10499935;28;20220;-77
2022/01/22 06:52:30;;;;;;;11.10;8.93;;;6.60;99.90;;;;;;10500210;28;20220;-79
2022/01/22 06:57:37;;;;;;;11.03;10.03;;;6.60;99.90;;;;;;10482948;28;20311;-78
2022/01/22 07:02:44;;;;;;;9.30;8.40;;;6.50;99.90;;;;;;10500532;28;20191;-78
2022/01/22 07:07:47;;;;;;;10.60;9.40;;;6.60;99.90;;;;;;10498517;28;20209;-77
2022/01/22 07:12:49;;;;;;;11.33;10.20;;;6.50;99.90;;;;;;10481895;28;20315;-77
2022/01/22 07:17:54;;;;;;;11.33;10.27;;;6.50;99.90;;;;;;10497028;28;20224;-78
2022/01/22 07:23:02;;;;;;;9.53;8.63;;;6.50;99.90;;;;;;10496479;28;20185;-78
2022/01/22 07:28:17;;;;;;;11.93;10.20;;;6.50;99.90;;;;;;10496924;28;20224;-77
2022/01/22 07:33:21;;;;;;;11.23;10.03;;;6.60;99.90;;;;;;10497171;28;20220;-78
2022/01/22 07:38:24;;;;;;;10.80;9.80;;;6.50;99.90;;;;;;10501454;28;20224;-77
2022/01/22 07:43:26;;;;;;;10.83;9.73;;;6.50;99.90;;;;;;10504543;28;20216;-78
2022/01/22 07:48:50;;;;;;;10.57;9.17;;;6.50;99.90;;;;;;10489748;28;20219;-78
2022/01/22 07:53:59;;;;;;;12.70;9.90;;;6.50;99.90;;;;;;10512179;28;20200;-78
2022/01/22 07:59:04;;;;;;;11.60;10.50;;;6.50;99.90;;;;;;10505043;28;20290;-77
2022/01/22 08:04:22;;;;;;;11.50;10.40;;;6.40;99.90;;;;;;10504285;28;20200;-78
2022/01/22 08:09:45;;;;;;;12.43;10.20;;;6.50;99.90;;;;;;10505919;28;20605;-78
2022/01/22 08:15:05;;;;;;;10.50;9.50;;;6.50;99.90;;;;;;10505624;28;20246;-78
2022/01/22 08:20:12;;;;;;;12.90;11.37;;;6.40;99.90;;;;;;10505175;28;20577;-79
2022/01/22 08:25:28;;;;;;;12.63;11.30;;;6.40;99.90;;;;;;10506520;28;20273;-78
2022/01/22 08:30:35;;;;;;;17.30;11.47;;;6.30;99.90;;;;;;10488923;28;20220;-78
2022/01/22 08:35:53;;;;;;;12.77;11.37;;;6.20;99.90;;;;;;10505416;28;20228;-78
2022/01/22 08:40:57;;;;;;;15.33;12.50;;;6.20;99.90;;;;;;10506701;28;20199;-78
2022/01/22 08:46:02;;;;;;;12.90;11.60;;;6.10;99.90;;;;;;10503885;28;20232;-78
2022/01/22 08:51:09;;;;;;;15.80;12.90;;;6.10;99.90;;;;;;10501484;28;20213;-78
2022/01/22 08:56:11;;;;;;;14.03;12.70;;;6.10;99.90;;;;;;10495528;28;20223;-78
2022/01/22 09:01:17;;;;;;;13.97;12.57;;;6.10;99.90;;;;;;10478736;28;20232;-78
2022/01/22 09:06:23;;;;;;;14.50;12.97;;;6.10;99.90;;;;;;10499804;28;20224;-77
2022/01/22 09:11:42;;;;;;;17.17;13.23;;;6.10;99.90;;;;;;10491538;28;20228;-77
2022/01/22 09:17:02;;;;;;;15.33;13.70;;;6.20;99.90;;;;;;10496814;28;20220;-77
2022/01/22 09:22:07;;;;;;;14.13;12.60;;;6.20;99.90;;;;;;10504419;28;20228;-79
2022/01/22 09:27:12;;;;;;;15.13;13.53;;;6.20;99.90;;;;;;10508127;28;20232;-79
2022/01/22 09:32:14;;;;;;;15.10;12.30;;;6.20;99.90;;;;;;10487304;28;20223;-78
2022/01/22 09:37:35;;;;;;;12.63;11.33;;;6.20;99.90;;;;;;10481632;28;20602;-80
2022/01/22 09:42:48;;;;;;;14.73;12.87;;;6.20;99.90;;;;;;10500906;28;20196;-79
2022/01/22 09:48:07;;;;;;;13.20;11.90;;;6.30;99.90;;;;;;10501644;28;20277;-77
2022/01/22 09:53:29;;;;;;;15.73;12.50;;;6.40;99.90;;;;;;10486691;28;20220;-77
2022/01/22 09:58:50;;;;;;;14.10;12.70;;;6.40;99.90;;;;;;10500389;28;20227;-77
2022/01/22 10:04:00;;;;;;;15.80;12.10;;;6.40;99.90;;;;;;10501629;28;20207;-78
2022/01/22 10:09:32;;;;;;;12.90;11.50;;;6.40;99.90;;;;;;10501847;28;20781;-80
2022/01/22 10:15:09;;;;;;;16.17;12.00;;;6.50;99.90;;;;;;10500553;28;20232;-78
2022/01/22 10:20:28;;;;;;;13.53;11.27;;;6.60;99.90;;;;;;10504885;28;20288;-79
2022/01/22 10:25:35;;;;;;;12.40;10.50;;;6.70;99.90;;;;;;10498166;28;20228;-80
2022/01/22 10:30:40;;;;;;;11.97;10.70;;;6.70;99.90;;;;;;10502563;28;20220;-78
2022/01/22 10:35:42;;;;;;;11.27;10.17;;;6.80;99.90;;;;;;10486001;28;20258;-78
2022/01/22 10:41:07;;;;;;;10.60;9.60;;;6.80;99.90;;;;;;10516903;28;20287;-79
2022/01/22 10:46:18;;;;;;;11.03;10.03;;;6.90;99.90;;;;;;10503573;28;20723;-77
2022/01/22 10:51:21;;;;;;;11.40;10.17;;;6.90;99.90;;;;;;10497454;28;20220;-79
2022/01/22 10:56:26;;;;;;;11.23;9.30;;;6.90;99.90;;;;;;10501697;28;20624;-77
2022/01/22 11:01:30;;;;;;;11.67;10.57;;;6.90;99.90;;;;;;10502673;28;20199;-80
2022/01/22 11:06:33;;;;;;;10.33;9.33;;;6.90;99.90;;;;;;10501973;28;20247;-77
2022/01/22 11:11:39;;;;;;;12.97;11.17;;;6.90;99.90;;;;;;10495381;28;20212;-77
2022/01/22 11:16:47;;;;;;;10.53;9.50;;;7.00;99.90;;;;;;10494803;28;20273;-78
2022/01/22 11:21:52;;;;;;;10.53;9.60;;;7.00;99.90;;;;;;10475979;28;20281;-77
2022/01/22 11:27:00;;;;;;;10.80;9.80;;;7.00;99.90;;;;;;10494669;28;20208;-77
2022/01/22 11:32:06;;;;;;;11.13;10.03;;;7.00;99.90;;;;;;10503508;28;20236;-77
2022/01/22 11:37:15;;;;;;;10.50;9.60;;;7.00;99.90;;;;;;10507228;28;20224;-77
2022/01/22 11:42:21;;;;;;;10.93;9.83;;;6.90;99.90;;;;;;10505250;28;20651;-78
2022/01/22 11:47:25;;;;;;;12.20;9.87;;;6.90;99.90;;;;;;10484848;28;20220;-77
2022/01/22 11:52:32;;;;;;;10.73;9.07;;;7.00;99.90;;;;;;10485500;28;20303;-77
2022/01/22 11:57:36;;;;;;;10.80;9.80;;;7.00;99.90;;;;;;10515995;28;20217;-77
2022/01/22 12:02:38;;;;;;;10.97;9.90;;;7.10;99.90;;;;;;10494908;28;20203;-77
2022/01/22 12:07:56;;;;;;;11.00;9.97;;;7.10;99.90;;;;;;10499741;28;20220;-77
2022/01/22 12:18:58;;;;;;;8.90;8.03;;;7.20;99.90;;;;;;10500488;28;20218;-78
2022/01/22 12:24:08;;;;;;;7.30;6.57;;;7.30;99.90;;;;;;10500559;28;20305;-77
2022/01/22 12:29:39;;;;;;;7.90;6.97;;;7.40;99.90;;;;;;10499838;28;20233;-77
2022/01/22 12:34:59;;;;;;;7.60;6.90;;;7.40;99.90;;;;;;10500432;28;20200;-78
2022/01/22 12:40:06;;;;;;;7.33;6.70;;;7.50;99.90;;;;;;10499450;28;20204;-77
2022/01/22 12:45:10;;;;;;;7.27;6.60;;;7.50;99.90;;;;;;10497723;28;20307;-77
2022/01/22 12:50:12;;;;;;;6.40;5.90;;;7.50;99.90;;;;;;10497632;28;20222;-77
2022/01/22 12:55:18;;;;;;;7.37;5.60;;;7.60;99.90;;;;;;10497527;28;20270;-76
2022/01/22 13:00:22;;;;;;;7.00;6.30;;;7.60;99.90;;;;;;10498770;28;20622;-76
2022/01/22 13:05:29;;;;;;;7.87;7.17;;;7.60;99.90;;;;;;10498465;28;20221;-78
2022/01/22 13:10:33;;;;;;;6.90;6.30;;;7.60;99.90;;;;;;10497951;28;20220;-76
2022/01/22 13:15:37;;;;;;;7.40;6.60;;;7.60;99.90;;;;;;10496714;28;20630;-77
2022/01/22 13:20:42;;;;;;;8.30;7.40;;;7.60;99.90;;;;;;10496540;28;20193;-77
2022/01/22 13:25:44;;;;;;;7.67;6.90;;;7.60;99.90;;;;;;10496083;28;20585;-76
2022/01/22 13:30:53;;;;;;;10.23;8.27;;;7.70;99.90;;;;;;10495449;28;20479;-76
2022/01/22 13:36:06;;;;;;;7.93;7.30;;;7.60;99.90;;;;;;10528396;22;20272;-76
2022/01/22 13:51:57;;;;;;;12.90;10.67;;;7.60;99.90;;;;;;10533208;28;20223;-78
2022/01/22 13:57:04;;;;;;;9.37;8.43;;;7.60;99.90;;;;;;10538188;28;20226;-78
2022/01/22 14:02:27;;;;;;;10.03;8.97;;;7.60;99.90;;;;;;10537877;28;20204;-78
2022/01/22 14:07:33;;;;;;;10.47;9.37;;;7.60;99.90;;;;;;10520194;28;20587;-77
2022/01/22 14:12:51;;;;;;;12.13;10.13;;;7.50;99.90;;;;;;10541155;28;20730;-78
2022/01/22 14:18:07;;;;;;;12.80;10.07;;;7.50;99.90;;;;;;10530495;28;20722;-77
2022/01/22 14:23:10;;;;;;;9.53;8.63;;;7.50;99.90;;;;;;10518969;28;20199;-77
2022/01/22 14:28:13;;;;;;;9.23;8.33;;;7.50;99.90;;;;;;10536154;28;20226;-77
2022/01/22 14:33:18;;;;;;;12.07;9.37;;;7.40;99.90;;;;;;10517838;28;20247;-77
2022/01/22 14:38:33;;;;;;;10.40;9.37;;;7.40;99.90;;;;;;10494409;28;20228;-77
2022/01/22 14:44:01;;;;;;;10.17;9.20;;;7.40;99.90;;;;;;10518069;28;20585;-78
2022/01/22 14:49:05;;;;;;;10.17;9.17;;;7.40;99.90;;;;;;10535855;28;20292;-78
2022/01/22 14:54:07;;;;;;;10.47;9.40;;;7.40;99.90;;;;;;10539788;28;20315;-78
2022/01/22 14:59:09;;;;;;;10.50;9.50;;;7.40;99.90;;;;;;10517845;28;20314;-77
2022/01/22 15:04:13;;;;;;;11.63;10.40;;;7.40;99.90;;;;;;10524673;28;20192;-77
2022/01/22 15:09:15;;;;;;;10.10;9.10;;;7.40;99.90;;;;;;10544538;28;20223;-77
2022/01/22 15:14:17;;;;;;;9.83;8.97;;;7.40;99.90;;;;;;10547956;28;20223;-78
2022/01/22 15:19:23;;;;;;;11.37;10.07;;;7.40;99.90;;;;;;10525244;28;20220;-78
2022/01/22 15:24:26;;;;;;;10.93;9.87;;;7.40;99.90;;;;;;10525866;28;20674;-78
2022/01/22 15:29:29;;;;;;;11.30;10.20;;;7.40;99.90;;;;;;10524683;28;20220;-76
2022/01/22 15:34:44;;;;;;;12.67;10.60;;;7.40;99.90;;;;;;10542340;28;20242;-76
2022/01/22 15:39:46;;;;;;;11.40;10.30;;;7.50;99.90;;;;;;10524127;28;20227;-76
2022/01/22 15:44:48;;;;;;;13.53;12.07;;;7.40;99.90;;;;;;10546890;28;20561;-74
2022/01/22 15:49:56;;;;;;;13.00;11.70;;;7.40;99.90;;;;;;10545655;28;20207;-76
2022/01/22 15:54:58;;;;;;;12.43;11.20;;;7.40;99.90;;;;;;10545810;28;20683;-78
2022/01/22 16:00:00;;;;;;;13.27;11.87;;;7.30;99.90;;;;;;10547895;28;20633;-78
2022/01/22 16:05:06;;;;;;;13.63;11.53;;;7.40;99.90;;;;;;10527859;28;20279;-78
2022/01/22 16:10:09;;;;;;;13.10;11.63;;;7.40;99.90;;;;;;10534749;28;20633;-77
2022/01/22 16:15:11;;;;;;;12.40;10.90;;;7.40;99.90;;;;;;10539828;28;20247;-77
2022/01/22 16:20:14;;;;;;;13.07;11.80;;;7.40;99.90;;;;;;10540943;28;20212;-78
2022/01/22 16:25:17;;;;;;;12.40;11.17;;;7.40;99.90;;;;;;10541347;28;20254;-78
2022/01/22 16:30:19;;;;;;;13.13;11.73;;;7.40;99.90;;;;;;10541630;28;20196;-78
2022/01/22 16:35:22;;;;;;;13.97;12.43;;;7.40;99.90;;;;;;10528544;28;20738;-77
2022/01/22 16:40:25;;;;;;;12.00;10.87;;;7.40;99.90;;;;;;10525906;28;20200;-78
2022/01/22 16:56:19;;;;;;;13.67;12.30;;;7.40;99.90;;;;;;10518642;28;20231;-77
2022/01/22 17:01:27;;;;;;;15.13;13.63;;;7.30;99.90;;;;;;10539132;28;20618;-78
2022/01/22 17:06:32;;;;;;;13.03;11.70;;;7.30;99.90;;;;;;10539064;28;20223;-77
2022/01/22 17:14:09;;;;;;;15.77;14.17;;;7.20;99.90;;;;;;10521621;28;20637;-78
2022/01/22 17:16:57;;;;;;;16.00;14.23;;;7.20;99.90;;;;;;10538421;28;20223;-77
2022/01/22 17:22:02;;;;;;;16.07;14.47;;;7.20;99.90;;;;;;10538306;28;20194;-76
2022/01/22 17:27:04;;;;;;;17.50;15.60;;;7.10;99.90;;;;;;10525798;28;20273;-75
2022/01/22 17:32:07;;;;;;;17.17;15.33;;;7.10;99.90;;;;;;10522362;28;20212;-76
2022/01/22 17:37:11;;;;;;;18.07;16.17;;;7.20;99.90;;;;;;10539202;28;20586;-76
2022/01/22 17:42:18;;;;;;;22.70;18.53;;;7.10;99.90;;;;;;10521491;28;20196;-76
2022/01/22 17:47:21;;;;;;;18.10;16.00;;;7.10;99.90;;;;;;10538684;28;20760;-75
2022/01/22 17:52:24;;;;;;;19.40;16.50;;;7.10;99.90;;;;;;10540319;28;20257;-76
2022/01/22 17:57:27;;;;;;;21.33;19.00;;;7.10;99.90;;;;;;10519663;28;20212;-75
2022/01/22 18:02:30;;;;;;;21.00;18.27;;;7.10;99.90;;;;;;10536886;28;20195;-78
2022/01/22 18:07:33;;;;;;;19.23;17.10;;;7.10;99.90;;;;;;10518405;28;20219;-77
2022/01/22 18:12:36;;;;;;;19.53;16.23;;;7.10;99.90;;;;;;10536418;28;20301;-78
2022/01/22 18:17:38;;;;;;;18.73;16.83;;;7.10;99.90;;;;;;10518002;28;20653;-77
2022/01/22 18:22:41;;;;;;;18.20;15.63;;;7.10;99.90;;;;;;10536496;28;20192;-77
2022/01/22 18:27:43;;;;;;;19.33;17.33;;;7.20;99.90;;;;;;10535748;28;20228;-77
2022/01/22 18:32:45;;;;;;;19.03;17.10;;;7.20;99.90;;;;;;10538814;28;20216;-78
2022/01/22 18:37:49;;;;;;;22.40;16.97;;;7.10;99.90;;;;;;10536906;28;20231;-78
2022/01/22 18:42:54;;;;;;;17.93;15.60;;;7.20;99.90;;;;;;10518096;28;20196;-78
2022/01/22 18:47:56;;;;;;;18.17;15.33;;;7.10;99.90;;;;;;10537388;28;20216;-77
2022/01/22 18:53:00;;;;;;;22.03;17.17;;;7.10;99.90;;;;;;10534164;28;20219;-78
2022/01/22 18:58:02;;;;;;;19.43;16.47;;;7.10;99.90;;;;;;10529231;28;20707;-77
2022/01/22 19:03:04;;;;;;;18.17;16.20;;;7.10;99.90;;;;;;10535094;28;20207;-78
2022/01/22 19:08:07;;;;;;;21.17;15.33;;;7.10;99.90;;;;;;10499637;28;20227;-77
2022/01/22 19:13:10;;;;;;;20.20;17.63;;;7.00;99.90;;;;;;10535435;28;20298;-77
2022/01/22 19:18:12;;;;;;;19.70;17.70;;;7.00;99.90;;;;;;10519002;28;20219;-75
2022/01/22 19:23:25;;;;;;;14.00;12.60;;;7.00;99.90;;;;;;10534497;28;20214;-75
2022/01/22 19:28:27;;;;;;;18.60;16.47;;;7.00;99.90;;;;;;10534445;28;20649;-76
2022/01/22 19:33:30;;;;;;;18.03;16.10;;;7.00;99.90;;;;;;10492345;28;20661;-76
2022/01/22 19:38:34;;;;;;;17.20;15.30;;;6.90;99.90;;;;;;10562994;22;20608;-78
2022/01/22 19:43:42;;;;;;;16.03;14.53;;;6.90;99.90;;;;;;10531895;28;20192;-77
2022/01/22 19:48:48;;;;;;;17.77;14.60;;;6.90;99.90;;;;;;10537210;28;20223;-79
2022/01/22 19:53:53;;;;;;;15.67;14.10;;;6.80;99.90;;;;;;10532190;28;20227;-78
2022/01/22 19:58:55;;;;;;;16.37;14.80;;;6.70;99.90;;;;;;10539447;28;20584;-79
2022/01/22 20:03:57;;;;;;;16.87;15.17;;;6.70;99.90;;;;;;10543184;28;20196;-79
2022/01/22 20:09:01;;;;;;;18.57;15.37;;;6.60;99.90;;;;;;10545889;28;20752;-79
2022/01/22 20:14:04;;;;;;;14.90;13.30;;;6.50;99.90;;;;;;10527501;28;20239;-79
2022/01/22 20:19:06;;;;;;;17.60;15.83;;;6.50;99.90;;;;;;10521750;28;20291;-79
2022/01/22 20:24:12;;;;;;;16.60;14.90;;;6.50;99.90;;;;;;10537472;28;20614;-80
2022/01/22 20:29:15;;;;;;;16.20;14.60;;;6.50;99.90;;;;;;10528049;28;20261;-77
2022/01/22 20:34:17;;;;;;;14.97;13.50;;;6.50;99.90;;;;;;10533217;28;20252;-79
2022/01/22 20:39:31;;;;;;;15.20;13.63;;;6.50;99.90;;;;;;10539867;28;20231;-79
2022/01/22 20:45:13;;;;;;;;;;;;;;;;;;;;;
2022/01/22 20:50:28;;;;;;;14.90;13.30;;;6.50;99.90;;;;;;10538196;28;20192;-79
2022/01/22 20:55:39;;;;;;;14.70;13.20;;;6.40;99.90;;;;;;10540656;28;20283;-77
2022/01/22 21:00:52;;;;;;;17.00;14.20;;;6.40;99.90;;;;;;10539229;28;20188;-77
2022/01/22 21:11:31;;;;;;;13.30;12.00;;;6.30;99.90;;;;;;10510556;28;20272;-80
2022/01/22 21:16:53;;;;;;;12.67;11.47;;;6.40;99.90;;;;;;10535260;28;20224;-77
2022/01/22 21:21:58;;;;;;;13.53;12.20;;;6.40;99.90;;;;;;10522005;28;20659;-77
2022/01/22 21:27:44;;;;;;;15.50;13.90;;;6.40;99.90;;;;;;10539776;28;20240;-79
2022/01/22 21:32:58;;;;;;;15.07;13.60;;;6.40;99.90;;;;;;10538874;28;20296;-80
2022/01/22 21:38:15;;;;;;;14.57;13.10;;;6.40;99.90;;;;;;10535747;28;20227;-79
2022/01/22 21:43:23;;;;;;;12.93;11.57;;;6.40;99.90;;;;;;10525151;28;20245;-79
2022/01/22 21:48:29;;;;;;;12.93;11.63;;;6.40;99.90;;;;;;10533038;28;20216;-80
2022/01/22 21:53:48;;;;;;;11.20;10.10;;;6.50;99.90;;;;;;10535796;28;20800;-77
2022/01/22 21:59:02;;;;;;;15.00;11.77;;;6.40;99.90;;;;;;10530522;28;20226;-79
2022/01/22 22:04:08;;;;;;;12.43;11.23;;;6.40;99.90;;;;;;10525476;28;20196;-80
2022/01/22 22:09:10;;;;;;;11.40;10.30;;;6.40;99.90;;;;;;10534383;28;20782;-77
2022/01/22 22:14:14;;;;;;;12.57;11.37;;;6.50;99.90;;;;;;10512679;28;20762;-77
2022/01/22 22:19:43;;;;;;;15.27;13.70;;;6.50;99.90;;;;;;10529404;28;20224;-78
2022/01/22 22:24:46;;;;;;;13.00;11.63;;;6.50;99.90;;;;;;10533356;28;20195;-78
2022/01/22 22:30:24;;;;;;;12.53;11.33;;;6.50;99.90;;;;;;10542615;28;20699;-78
2022/01/22 22:35:28;;;;;;;11.53;10.33;;;6.50;99.90;;;;;;10484071;28;20309;-78
2022/01/22 22:40:34;;;;;;;13.00;11.20;;;6.40;99.90;;;;;;10536879;28;20208;-79
2022/01/22 22:52:10;;;;;;;11.90;10.60;;;6.50;99.90;;;;;;10422451;28;20251;-80
2022/01/22 22:57:49;;;;;;;10.97;9.87;;;6.50;99.90;;;;;;10543801;22;20226;-79
2022/01/22 23:02:55;;;;;;;12.70;11.17;;;6.50;99.90;;;;;;10436822;28;20196;-79
2022/01/22 23:08:27;;;;;;;12.20;11.00;;;6.60;99.90;;;;;;10500708;28;20280;-77
2022/01/22 23:13:32;;;;;;;11.27;10.10;;;6.60;99.90;;;;;;10501444;28;20251;-80
2022/01/22 23:30:19;;;;;;;10.90;9.70;;;6.70;99.90;;;;;;10493606;28;20200;-81
2022/01/22 23:35:34;;;;;;;11.87;10.67;;;6.70;99.90;;;;;;10505913;28;20216;-78
2022/01/22 23:46:17;;;;;;;13.67;10.53;;;6.80;99.90;;;;;;10505554;28;20212;-79
2022/01/22 23:56:51;;;;;;;12.70;11.40;;;6.80;99.90;;;;;;10490955;28;20224;-79
